sensor_id;sensor_type;location;lat;lon;timestamp;temperature;humidity
56538;DHT22;42435;53.292;6.000;2023-06-22T00:02:11;18.60;77.80
56538;DHT22;42435;53.292;6.000;2023-06-22T00:04:37;18.50;78.00
56538;DHT22;42435;53.292;6.000;2023-06-22T00:07:02;18.50;78.10
56538;DHT22;42435;53.292;6.000;2023-06-22T00:09:28;18.50;77.90
56538;DHT22;42435;53.292;6.000;2023-06-22T00:11:55;18.50;77.70
56538;DHT22;42435;53.292;6.000;2023-06-22T00:14:25;18.40;77.80
56538;DHT22;42435;53.292;6.000;2023-06-22T00:16:50;18.40;78.00
56538;DHT22;42435;53.292;6.000;2023-06-22T00:19:20;18.40;78.00
56538;DHT22;42435;53.292;6.000;2023-06-22T00:21:47;18.30;77.70
56538;DHT22;42435;53.292;6.000;2023-06-22T00:24:19;18.30;77.60
56538;DHT22;42435;53.292;6.000;2023-06-22T00:26:45;18.20;77.60
56538;DHT22;42435;53.292;6.000;2023-06-22T00:29:11;18.20;77.60
56538;DHT22;42435;53.292;6.000;2023-06-22T00:31:39;18.10;77.60
56538;DHT22;42435;53.292;6.000;2023-06-22T00:34:05;18.10;77.50
56538;DHT22;42435;53.292;6.000;2023-06-22T00:36:32;18.00;77.60
56538;DHT22;42435;53.292;6.000;2023-06-22T00:38:57;18.00;77.80
56538;DHT22;42435;53.292;6.000;2023-06-22T00:41:23;18.00;77.90
56538;DHT22;42435;53.292;6.000;2023-06-22T00:43:48;17.90;77.90
56538;DHT22;42435;53.292;6.000;2023-06-22T00:46:15;17.90;77.90
56538;DHT22;42435;53.292;6.000;2023-06-22T00:48:41;17.90;78.00
56538;DHT22;42435;53.292;6.000;2023-06-22T00:51:10;17.80;78.00
56538;DHT22;42435;53.292;6.000;2023-06-22T00:53:36;17.70;78.00
56538;DHT22;42435;53.292;6.000;2023-06-22T00:56:03;17.70;78.10
56538;DHT22;42435;53.292;6.000;2023-06-22T00:58:29;17.70;78.10
56538;DHT22;42435;53.292;6.000;2023-06-22T01:00:55;17.60;78.20
56538;DHT22;42435;53.292;6.000;2023-06-22T01:03:22;17.60;78.20
56538;DHT22;42435;53.292;6.000;2023-06-22T01:05:48;17.50;78.30
56538;DHT22;42435;53.292;6.000;2023-06-22T01:08:57;17.50;78.60
56538;DHT22;42435;53.292;6.000;2023-06-22T01:11:32;17.50;78.90
56538;DHT22;42435;53.292;6.000;2023-06-22T01:14:18;17.50;78.80
56538;DHT22;42435;53.292;6.000;2023-06-22T01:16:48;17.40;78.80
56538;DHT22;42435;53.292;6.000;2023-06-22T01:19:29;17.40;78.60
56538;DHT22;42435;53.292;6.000;2023-06-22T01:22:02;17.40;78.80
56538;DHT22;42435;53.292;6.000;2023-06-22T01:24:55;17.30;78.70
56538;DHT22;42435;53.292;6.000;2023-06-22T01:28:03;17.30;78.70
56538;DHT22;42435;53.292;6.000;2023-06-22T01:30:33;17.30;78.80
56538;DHT22;42435;53.292;6.000;2023-06-22T01:33:00;17.30;78.70
56538;DHT22;42435;53.292;6.000;2023-06-22T01:35:27;17.30;78.90
56538;DHT22;42435;53.292;6.000;2023-06-22T01:37:53;17.20;78.90
56538;DHT22;42435;53.292;6.000;2023-06-22T01:40:21;17.20;79.10
56538;DHT22;42435;53.292;6.000;2023-06-22T01:42:48;17.20;79.40
56538;DHT22;42435;53.292;6.000;2023-06-22T01:45:16;17.20;79.30
56538;DHT22;42435;53.292;6.000;2023-06-22T01:47:42;17.20;79.50
56538;DHT22;42435;53.292;6.000;2023-06-22T01:50:08;17.10;79.60
56538;DHT22;42435;53.292;6.000;2023-06-22T01:52:34;17.10;79.60
56538;DHT22;42435;53.292;6.000;2023-06-22T01:55:00;17.10;79.50
56538;DHT22;42435;53.292;6.000;2023-06-22T01:57:27;17.10;79.40
56538;DHT22;42435;53.292;6.000;2023-06-22T02:00:03;17.10;79.50
56538;DHT22;42435;53.292;6.000;2023-06-22T02:02:39;17.10;79.50
56538;DHT22;42435;53.292;6.000;2023-06-22T02:05:08;17.00;79.20
56538;DHT22;42435;53.292;6.000;2023-06-22T02:07:44;17.00;79.00
56538;DHT22;42435;53.292;6.000;2023-06-22T02:10:12;17.00;79.00
56538;DHT22;42435;53.292;6.000;2023-06-22T02:12:40;16.90;78.90
56538;DHT22;42435;53.292;6.000;2023-06-22T02:15:08;16.90;78.90
56538;DHT22;42435;53.292;6.000;2023-06-22T02:17:34;16.90;79.00
56538;DHT22;42435;53.292;6.000;2023-06-22T02:20:02;16.90;79.10
56538;DHT22;42435;53.292;6.000;2023-06-22T02:22:31;16.80;79.40
56538;DHT22;42435;53.292;6.000;2023-06-22T02:24:56;16.80;79.40
56538;DHT22;42435;53.292;6.000;2023-06-22T02:27:22;16.70;79.40
56538;DHT22;42435;53.292;6.000;2023-06-22T02:29:50;16.70;79.50
56538;DHT22;42435;53.292;6.000;2023-06-22T02:32:16;16.70;79.70
56538;DHT22;42435;53.292;6.000;2023-06-22T02:34:46;16.70;79.90
56538;DHT22;42435;53.292;6.000;2023-06-22T02:37:15;16.60;79.90
56538;DHT22;42435;53.292;6.000;2023-06-22T02:39:41;16.60;79.80
56538;DHT22;42435;53.292;6.000;2023-06-22T02:42:07;16.50;79.70
56538;DHT22;42435;53.292;6.000;2023-06-22T02:44:32;16.50;79.80
56538;DHT22;42435;53.292;6.000;2023-06-22T02:46:58;16.50;79.90
56538;DHT22;42435;53.292;6.000;2023-06-22T02:49:27;16.50;80.00
56538;DHT22;42435;53.292;6.000;2023-06-22T02:51:52;16.50;80.10
56538;DHT22;42435;53.292;6.000;2023-06-22T02:54:18;16.50;80.00
56538;DHT22;42435;53.292;6.000;2023-06-22T02:56:44;16.50;80.00
56538;DHT22;42435;53.292;6.000;2023-06-22T02:59:11;16.50;80.00
56538;DHT22;42435;53.292;6.000;2023-06-22T03:01:38;16.50;79.80
56538;DHT22;42435;53.292;6.000;2023-06-22T03:04:09;16.50;79.80
56538;DHT22;42435;53.292;6.000;2023-06-22T03:06:35;16.50;79.90
56538;DHT22;42435;53.292;6.000;2023-06-22T03:09:03;16.40;79.80
56538;DHT22;42435;53.292;6.000;2023-06-22T03:11:34;16.40;79.80
56538;DHT22;42435;53.292;6.000;2023-06-22T03:14:01;16.40;79.90
56538;DHT22;42435;53.292;6.000;2023-06-22T03:16:27;16.40;80.00
56538;DHT22;42435;53.292;6.000;2023-06-22T03:18:52;16.40;80.10
56538;DHT22;42435;53.292;6.000;2023-06-22T03:21:23;16.40;80.00
56538;DHT22;42435;53.292;6.000;2023-06-22T03:23:48;16.40;79.80
56538;DHT22;42435;53.292;6.000;2023-06-22T03:26:16;16.40;79.70
56538;DHT22;42435;53.292;6.000;2023-06-22T03:28:42;16.40;79.70
56538;DHT22;42435;53.292;6.000;2023-06-22T03:31:11;16.30;79.60
56538;DHT22;42435;53.292;6.000;2023-06-22T03:33:36;16.40;79.60
56538;DHT22;42435;53.292;6.000;2023-06-22T03:36:02;16.40;79.50
56538;DHT22;42435;53.292;6.000;2023-06-22T03:38:28;16.40;79.40
56538;DHT22;42435;53.292;6.000;2023-06-22T03:40:53;16.40;79.40
56538;DHT22;42435;53.292;6.000;2023-06-22T03:43:19;16.40;79.50
56538;DHT22;42435;53.292;6.000;2023-06-22T03:45:44;16.40;79.50
56538;DHT22;42435;53.292;6.000;2023-06-22T03:48:13;16.50;79.60
56538;DHT22;42435;53.292;6.000;2023-06-22T03:50:38;16.40;79.50
56538;DHT22;42435;53.292;6.000;2023-06-22T03:53:04;16.50;79.50
56538;DHT22;42435;53.292;6.000;2023-06-22T03:55:29;16.50;79.40
56538;DHT22;42435;53.292;6.000;2023-06-22T03:57:57;16.50;79.50
56538;DHT22;42435;53.292;6.000;2023-06-22T04:00:23;16.50;79.70
56538;DHT22;42435;53.292;6.000;2023-06-22T04:02:49;16.60;79.70
56538;DHT22;42435;53.292;6.000;2023-06-22T04:05:15;16.60;79.80
56538;DHT22;42435;53.292;6.000;2023-06-22T04:07:45;16.70;80.00
56538;DHT22;42435;53.292;6.000;2023-06-22T04:10:11;16.70;80.10
56538;DHT22;42435;53.292;6.000;2023-06-22T04:12:37;16.70;80.20
56538;DHT22;42435;53.292;6.000;2023-06-22T04:15:03;16.70;80.30
56538;DHT22;42435;53.292;6.000;2023-06-22T04:17:30;16.70;80.50
56538;DHT22;42435;53.292;6.000;2023-06-22T04:19:55;16.80;80.60
56538;DHT22;42435;53.292;6.000;2023-06-22T04:22:21;16.80;80.70
56538;DHT22;42435;53.292;6.000;2023-06-22T04:24:49;16.90;80.70
56538;DHT22;42435;53.292;6.000;2023-06-22T04:27:17;16.90;80.70
56538;DHT22;42435;53.292;6.000;2023-06-22T04:29:47;16.90;80.70
56538;DHT22;42435;53.292;6.000;2023-06-22T04:32:15;17.00;80.80
56538;DHT22;42435;53.292;6.000;2023-06-22T04:34:41;17.10;80.80
56538;DHT22;42435;53.292;6.000;2023-06-22T04:37:06;17.10;80.70
56538;DHT22;42435;53.292;6.000;2023-06-22T04:39:32;17.20;80.70
56538;DHT22;42435;53.292;6.000;2023-06-22T04:41:58;17.20;80.60
56538;DHT22;42435;53.292;6.000;2023-06-22T04:44:28;17.30;80.40
56538;DHT22;42435;53.292;6.000;2023-06-22T04:46:56;17.40;80.40
56538;DHT22;42435;53.292;6.000;2023-06-22T04:49:37;17.40;80.30
56538;DHT22;42435;53.292;6.000;2023-06-22T04:52:07;17.50;80.20
56538;DHT22;42435;53.292;6.000;2023-06-22T04:54:35;17.60;80.30
56538;DHT22;42435;53.292;6.000;2023-06-22T04:57:02;17.60;80.30
56538;DHT22;42435;53.292;6.000;2023-06-22T04:59:30;17.70;80.40
56538;DHT22;42435;53.292;6.000;2023-06-22T05:02:00;17.90;80.50
56538;DHT22;42435;53.292;6.000;2023-06-22T05:04:27;17.90;80.80
56538;DHT22;42435;53.292;6.000;2023-06-22T05:06:54;18.00;80.90
56538;DHT22;42435;53.292;6.000;2023-06-22T05:09:20;18.10;81.10
56538;DHT22;42435;53.292;6.000;2023-06-22T05:11:46;18.20;81.10
56538;DHT22;42435;53.292;6.000;2023-06-22T05:14:13;18.20;81.20
56538;DHT22;42435;53.292;6.000;2023-06-22T05:16:41;18.30;81.40
56538;DHT22;42435;53.292;6.000;2023-06-22T05:19:07;18.40;81.60
56538;DHT22;42435;53.292;6.000;2023-06-22T05:21:32;18.50;81.60
56538;DHT22;42435;53.292;6.000;2023-06-22T05:23:58;18.60;81.70
56538;DHT22;42435;53.292;6.000;2023-06-22T05:26:34;18.70;81.80
56538;DHT22;42435;53.292;6.000;2023-06-22T05:29:02;18.80;82.00
56538;DHT22;42435;53.292;6.000;2023-06-22T05:31:28;18.90;81.80
56538;DHT22;42435;53.292;6.000;2023-06-22T05:33:54;19.00;81.70
56538;DHT22;42435;53.292;6.000;2023-06-22T05:36:20;19.10;81.80
56538;DHT22;42435;53.292;6.000;2023-06-22T05:38:47;19.20;82.00
56538;DHT22;42435;53.292;6.000;2023-06-22T05:41:13;19.40;82.10
56538;DHT22;42435;53.292;6.000;2023-06-22T05:43:42;19.50;82.20
56538;DHT22;42435;53.292;6.000;2023-06-22T05:46:08;19.60;82.10
56538;DHT22;42435;53.292;6.000;2023-06-22T05:48:36;19.70;82.10
56538;DHT22;42435;53.292;6.000;2023-06-22T05:51:02;19.90;81.90
56538;DHT22;42435;53.292;6.000;2023-06-22T05:53:28;19.90;81.80
56538;DHT22;42435;53.292;6.000;2023-06-22T05:55:53;20.10;81.70
56538;DHT22;42435;53.292;6.000;2023-06-22T05:58:19;20.30;81.40
56538;DHT22;42435;53.292;6.000;2023-06-22T06:00:44;20.40;81.10
56538;DHT22;42435;53.292;6.000;2023-06-22T06:03:14;20.50;80.90
56538;DHT22;42435;53.292;6.000;2023-06-22T06:05:45;20.70;80.70
56538;DHT22;42435;53.292;6.000;2023-06-22T06:08:14;20.90;80.70
56538;DHT22;42435;53.292;6.000;2023-06-22T06:10:40;21.00;80.40
56538;DHT22;42435;53.292;6.000;2023-06-22T06:13:05;21.40;79.80
56538;DHT22;42435;53.292;6.000;2023-06-22T06:15:34;21.60;79.30
56538;DHT22;42435;53.292;6.000;2023-06-22T06:18:00;21.80;78.80
56538;DHT22;42435;53.292;6.000;2023-06-22T06:20:26;21.90;78.40
56538;DHT22;42435;53.292;6.000;2023-06-22T06:22:54;22.00;77.40
56538;DHT22;42435;53.292;6.000;2023-06-22T06:25:21;22.20;76.80
56538;DHT22;42435;53.292;6.000;2023-06-22T06:27:48;22.40;75.80
56538;DHT22;42435;53.292;6.000;2023-06-22T06:30:16;22.50;74.90
56538;DHT22;42435;53.292;6.000;2023-06-22T06:32:46;22.70;74.20
56538;DHT22;42435;53.292;6.000;2023-06-22T06:35:12;22.80;73.60
56538;DHT22;42435;53.292;6.000;2023-06-22T06:37:40;22.90;73.70
56538;DHT22;42435;53.292;6.000;2023-06-22T06:40:07;23.00;73.10
56538;DHT22;42435;53.292;6.000;2023-06-22T06:42:36;23.20;72.60
56538;DHT22;42435;53.292;6.000;2023-06-22T06:45:04;23.30;72.20
56538;DHT22;42435;53.292;6.000;2023-06-22T06:47:30;23.40;71.50
56538;DHT22;42435;53.292;6.000;2023-06-22T06:49:55;23.50;70.80
56538;DHT22;42435;53.292;6.000;2023-06-22T06:52:21;23.60;70.80
56538;DHT22;42435;53.292;6.000;2023-06-22T06:54:46;23.80;70.50
56538;DHT22;42435;53.292;6.000;2023-06-22T06:57:12;23.90;70.20
56538;DHT22;42435;53.292;6.000;2023-06-22T06:59:39;24.00;69.60
56538;DHT22;42435;53.292;6.000;2023-06-22T07:02:05;24.10;68.50
56538;DHT22;42435;53.292;6.000;2023-06-22T07:04:30;24.20;67.80
56538;DHT22;42435;53.292;6.000;2023-06-22T07:07:00;24.30;67.00
56538;DHT22;42435;53.292;6.000;2023-06-22T07:09:29;24.30;66.60
56538;DHT22;42435;53.292;6.000;2023-06-22T07:11:55;24.40;66.70
56538;DHT22;42435;53.292;6.000;2023-06-22T07:14:22;24.50;65.90
56538;DHT22;42435;53.292;6.000;2023-06-22T07:16:47;24.70;65.90
56538;DHT22;42435;53.292;6.000;2023-06-22T07:19:26;24.80;65.30
56538;DHT22;42435;53.292;6.000;2023-06-22T07:21:55;24.90;64.40
56538;DHT22;42435;53.292;6.000;2023-06-22T07:24:21;25.10;64.00
56538;DHT22;42435;53.292;6.000;2023-06-22T07:26:48;25.20;63.50
56538;DHT22;42435;53.292;6.000;2023-06-22T07:29:21;25.30;63.10
56538;DHT22;42435;53.292;6.000;2023-06-22T07:31:48;25.40;62.50
56538;DHT22;42435;53.292;6.000;2023-06-22T07:34:17;25.40;62.10
56538;DHT22;42435;53.292;6.000;2023-06-22T07:36:44;25.40;62.00
56538;DHT22;42435;53.292;6.000;2023-06-22T07:39:12;25.40;62.30
56538;DHT22;42435;53.292;6.000;2023-06-22T07:41:39;25.50;62.40
56538;DHT22;42435;53.292;6.000;2023-06-22T07:44:14;25.50;62.60
56538;DHT22;42435;53.292;6.000;2023-06-22T07:46:45;25.70;62.20
56538;DHT22;42435;53.292;6.000;2023-06-22T07:49:11;25.70;62.30
56538;DHT22;42435;53.292;6.000;2023-06-22T07:51:37;25.80;62.00
56538;DHT22;42435;53.292;6.000;2023-06-22T07:54:05;25.90;61.70
56538;DHT22;42435;53.292;6.000;2023-06-22T07:56:31;25.90;61.20
56538;DHT22;42435;53.292;6.000;2023-06-22T07:58:58;26.00;61.10
56538;DHT22;42435;53.292;6.000;2023-06-22T08:01:34;26.10;61.60
56538;DHT22;42435;53.292;6.000;2023-06-22T08:04:00;26.20;61.00
56538;DHT22;42435;53.292;6.000;2023-06-22T08:06:26;26.40;60.50
56538;DHT22;42435;53.292;6.000;2023-06-22T08:08:51;26.50;60.10
56538;DHT22;42435;53.292;6.000;2023-06-22T08:11:19;26.60;60.20
56538;DHT22;42435;53.292;6.000;2023-06-22T08:13:44;26.60;60.50
56538;DHT22;42435;53.292;6.000;2023-06-22T08:16:10;26.70;59.50
56538;DHT22;42435;53.292;6.000;2023-06-22T08:18:38;26.90;58.80
56538;DHT22;42435;53.292;6.000;2023-06-22T08:21:04;26.90;57.90
56538;DHT22;42435;53.292;6.000;2023-06-22T08:23:29;26.90;58.40
56538;DHT22;42435;53.292;6.000;2023-06-22T08:25:58;26.90;58.50
56538;DHT22;42435;53.292;6.000;2023-06-22T08:28:24;27.10;58.70
56538;DHT22;42435;53.292;6.000;2023-06-22T08:30:49;27.20;58.00
56538;DHT22;42435;53.292;6.000;2023-06-22T08:33:15;27.30;58.10
56538;DHT22;42435;53.292;6.000;2023-06-22T08:35:41;27.30;57.10
56538;DHT22;42435;53.292;6.000;2023-06-22T08:38:17;27.30;56.60
56538;DHT22;42435;53.292;6.000;2023-06-22T08:40:44;27.30;56.10
56538;DHT22;42435;53.292;6.000;2023-06-22T08:43:09;27.20;55.00
56538;DHT22;42435;53.292;6.000;2023-06-22T08:45:35;27.20;55.50
56538;DHT22;42435;53.292;6.000;2023-06-22T08:48:00;27.10;55.90
56538;DHT22;42435;53.292;6.000;2023-06-22T08:50:26;27.20;56.40
56538;DHT22;42435;53.292;6.000;2023-06-22T08:52:52;27.20;56.30
56538;DHT22;42435;53.292;6.000;2023-06-22T08:55:17;27.20;56.10
56538;DHT22;42435;53.292;6.000;2023-06-22T08:57:46;27.30;55.60
56538;DHT22;42435;53.292;6.000;2023-06-22T09:00:12;27.30;55.00
56538;DHT22;42435;53.292;6.000;2023-06-22T09:02:43;27.40;55.00
56538;DHT22;42435;53.292;6.000;2023-06-22T09:05:09;27.60;55.80
56538;DHT22;42435;53.292;6.000;2023-06-22T09:07:34;27.90;55.50
56538;DHT22;42435;53.292;6.000;2023-06-22T09:10:00;28.00;55.20
56538;DHT22;42435;53.292;6.000;2023-06-22T09:12:28;28.20;55.10
56538;DHT22;42435;53.292;6.000;2023-06-22T09:15:00;28.40;54.80
56538;DHT22;42435;53.292;6.000;2023-06-22T09:17:26;28.60;54.40
56538;DHT22;42435;53.292;6.000;2023-06-22T09:19:51;28.80;54.20
56538;DHT22;42435;53.292;6.000;2023-06-22T09:22:17;29.00;51.30
56538;DHT22;42435;53.292;6.000;2023-06-22T09:24:43;29.00;51.20
56538;DHT22;42435;53.292;6.000;2023-06-22T09:27:09;29.10;51.00
56538;DHT22;42435;53.292;6.000;2023-06-22T09:29:34;29.10;50.10
56538;DHT22;42435;53.292;6.000;2023-06-22T09:32:00;29.20;51.00
56538;DHT22;42435;53.292;6.000;2023-06-22T09:34:26;29.30;50.10
56538;DHT22;42435;53.292;6.000;2023-06-22T09:36:51;29.40;50.90
56538;DHT22;42435;53.292;6.000;2023-06-22T09:39:20;29.50;51.10
56538;DHT22;42435;53.292;6.000;2023-06-22T09:41:46;29.60;49.90
56538;DHT22;42435;53.292;6.000;2023-06-22T09:44:11;29.70;49.50
56538;DHT22;42435;53.292;6.000;2023-06-22T09:46:37;29.80;49.10
56538;DHT22;42435;53.292;6.000;2023-06-22T09:49:06;29.90;48.70
56538;DHT22;42435;53.292;6.000;2023-06-22T09:51:32;30.00;48.80
56538;DHT22;42435;53.292;6.000;2023-06-22T09:53:57;30.00;48.50
56538;DHT22;42435;53.292;6.000;2023-06-22T09:56:26;30.10;47.80
56538;DHT22;42435;53.292;6.000;2023-06-22T09:58:53;30.00;48.30
56538;DHT22;42435;53.292;6.000;2023-06-22T10:01:20;29.90;48.00
56538;DHT22;42435;53.292;6.000;2023-06-22T10:03:47;29.90;48.70
56538;DHT22;42435;53.292;6.000;2023-06-22T10:06:12;29.90;48.30
56538;DHT22;42435;53.292;6.000;2023-06-22T10:08:38;29.70;48.80
56538;DHT22;42435;53.292;6.000;2023-06-22T10:11:04;29.70;48.50
56538;DHT22;42435;53.292;6.000;2023-06-22T10:13:32;29.70;48.00
56538;DHT22;42435;53.292;6.000;2023-06-22T10:15:58;29.60;47.90
56538;DHT22;42435;53.292;6.000;2023-06-22T10:18:24;29.60;47.90
56538;DHT22;42435;53.292;6.000;2023-06-22T10:20:50;29.60;47.90
56538;DHT22;42435;53.292;6.000;2023-06-22T10:23:17;29.50;48.40
56538;DHT22;42435;53.292;6.000;2023-06-22T10:25:46;29.50;49.10
56538;DHT22;42435;53.292;6.000;2023-06-22T10:28:12;29.50;48.20
56538;DHT22;42435;53.292;6.000;2023-06-22T10:30:39;29.40;48.80
56538;DHT22;42435;53.292;6.000;2023-06-22T10:33:07;29.40;49.00
56538;DHT22;42435;53.292;6.000;2023-06-22T10:35:33;29.40;49.70
56538;DHT22;42435;53.292;6.000;2023-06-22T10:37:59;29.40;50.20
56538;DHT22;42435;53.292;6.000;2023-06-22T10:40:25;29.40;50.20
56538;DHT22;42435;53.292;6.000;2023-06-22T10:42:50;29.40;49.60
56538;DHT22;42435;53.292;6.000;2023-06-22T10:45:16;29.40;49.50
56538;DHT22;42435;53.292;6.000;2023-06-22T10:47:42;29.50;49.70
56538;DHT22;42435;53.292;6.000;2023-06-22T10:50:11;29.50;49.30
56538;DHT22;42435;53.292;6.000;2023-06-22T10:52:37;29.70;49.70
56538;DHT22;42435;53.292;6.000;2023-06-22T10:55:03;29.70;49.40
56538;DHT22;42435;53.292;6.000;2023-06-22T10:57:29;29.70;49.00
56538;DHT22;42435;53.292;6.000;2023-06-22T10:59:55;29.70;49.60
56538;DHT22;42435;53.292;6.000;2023-06-22T11:02:20;29.80;48.90
56538;DHT22;42435;53.292;6.000;2023-06-22T11:04:46;29.80;48.60
56538;DHT22;42435;53.292;6.000;2023-06-22T11:07:13;29.70;48.90
56538;DHT22;42435;53.292;6.000;2023-06-22T11:09:38;29.70;49.40
56538;DHT22;42435;53.292;6.000;2023-06-22T11:12:05;29.70;49.50
56538;DHT22;42435;53.292;6.000;2023-06-22T11:14:31;29.80;49.60
56538;DHT22;42435;53.292;6.000;2023-06-22T11:16:59;29.90;49.00
56538;DHT22;42435;53.292;6.000;2023-06-22T11:19:24;29.90;48.50
56538;DHT22;42435;53.292;6.000;2023-06-22T11:21:50;29.80;48.20
56538;DHT22;42435;53.292;6.000;2023-06-22T11:24:16;29.70;48.30
56538;DHT22;42435;53.292;6.000;2023-06-22T11:26:42;29.70;48.60
56538;DHT22;42435;53.292;6.000;2023-06-22T11:29:09;29.70;48.20
56538;DHT22;42435;53.292;6.000;2023-06-22T11:31:35;29.70;47.30
56538;DHT22;42435;53.292;6.000;2023-06-22T11:34:01;29.60;46.30
56538;DHT22;42435;53.292;6.000;2023-06-22T11:36:27;29.50;45.70
56538;DHT22;42435;53.292;6.000;2023-06-22T11:38:52;29.40;46.10
56538;DHT22;42435;53.292;6.000;2023-06-22T11:41:18;29.30;45.60
56538;DHT22;42435;53.292;6.000;2023-06-22T11:43:44;29.20;45.50
56538;DHT22;42435;53.292;6.000;2023-06-22T11:46:13;29.00;45.70
56538;DHT22;42435;53.292;6.000;2023-06-22T11:48:38;29.00;45.30
56538;DHT22;42435;53.292;6.000;2023-06-22T11:51:04;28.90;44.80
56538;DHT22;42435;53.292;6.000;2023-06-22T11:53:34;28.90;44.90
56538;DHT22;42435;53.292;6.000;2023-06-22T11:56:01;28.90;45.00
56538;DHT22;42435;53.292;6.000;2023-06-22T11:58:28;29.00;45.30
56538;DHT22;42435;53.292;6.000;2023-06-22T12:00:56;29.20;45.60
56538;DHT22;42435;53.292;6.000;2023-06-22T12:03:21;29.30;45.00
56538;DHT22;42435;53.292;6.000;2023-06-22T12:05:47;29.40;44.10
56538;DHT22;42435;53.292;6.000;2023-06-22T12:08:13;29.50;43.70
56538;DHT22;42435;53.292;6.000;2023-06-22T12:10:39;29.50;43.30
56538;DHT22;42435;53.292;6.000;2023-06-22T12:13:05;29.70;43.60
56538;DHT22;42435;53.292;6.000;2023-06-22T12:15:30;29.80;43.20
56538;DHT22;42435;53.292;6.000;2023-06-22T12:17:56;29.80;43.00
56538;DHT22;42435;53.292;6.000;2023-06-22T12:20:21;29.80;42.40
56538;DHT22;42435;53.292;6.000;2023-06-22T12:22:47;29.70;42.50
56538;DHT22;42435;53.292;6.000;2023-06-22T12:25:13;29.70;42.50
56538;DHT22;42435;53.292;6.000;2023-06-22T12:27:39;29.60;42.40
56538;DHT22;42435;53.292;6.000;2023-06-22T12:30:05;29.40;42.30
56538;DHT22;42435;53.292;6.000;2023-06-22T12:32:33;29.20;42.60
56538;DHT22;42435;53.292;6.000;2023-06-22T12:34:58;29.10;43.70
56538;DHT22;42435;53.292;6.000;2023-06-22T12:37:24;29.00;44.70
56538;DHT22;42435;53.292;6.000;2023-06-22T12:39:50;29.00;43.70
56538;DHT22;42435;53.292;6.000;2023-06-22T12:42:16;28.90;43.40
56538;DHT22;42435;53.292;6.000;2023-06-22T12:44:42;28.80;43.70
56538;DHT22;42435;53.292;6.000;2023-06-22T12:47:10;28.60;43.20
56538;DHT22;42435;53.292;6.000;2023-06-22T12:49:36;28.40;43.30
56538;DHT22;42435;53.292;6.000;2023-06-22T12:52:08;28.20;43.40
56538;DHT22;42435;53.292;6.000;2023-06-22T12:54:34;28.10;43.90
56538;DHT22;42435;53.292;6.000;2023-06-22T12:57:01;28.00;44.20
56538;DHT22;42435;53.292;6.000;2023-06-22T12:59:27;27.90;44.20
56538;DHT22;42435;53.292;6.000;2023-06-22T13:01:52;27.70;44.90
56538;DHT22;42435;53.292;6.000;2023-06-22T13:04:18;27.60;44.80
56538;DHT22;42435;53.292;6.000;2023-06-22T13:06:47;27.40;45.30
56538;DHT22;42435;53.292;6.000;2023-06-22T13:09:17;27.30;45.70
56538;DHT22;42435;53.292;6.000;2023-06-22T13:11:43;27.20;45.90
56538;DHT22;42435;53.292;6.000;2023-06-22T13:14:10;27.10;46.20
56538;DHT22;42435;53.292;6.000;2023-06-22T13:16:35;27.10;45.50
56538;DHT22;42435;53.292;6.000;2023-06-22T13:19:01;26.90;45.80
56538;DHT22;42435;53.292;6.000;2023-06-22T13:21:26;26.80;45.90
56538;DHT22;42435;53.292;6.000;2023-06-22T13:23:55;26.60;45.80
56538;DHT22;42435;53.292;6.000;2023-06-22T13:26:21;26.50;45.90
56538;DHT22;42435;53.292;6.000;2023-06-22T13:28:47;26.30;46.60
56538;DHT22;42435;53.292;6.000;2023-06-22T13:31:13;26.30;46.80
56538;DHT22;42435;53.292;6.000;2023-06-22T13:33:38;26.10;46.80
56538;DHT22;42435;53.292;6.000;2023-06-22T13:36:06;26.00;47.30
56538;DHT22;42435;53.292;6.000;2023-06-22T13:38:33;26.00;47.70
56538;DHT22;42435;53.292;6.000;2023-06-22T13:40:59;26.00;48.20
56538;DHT22;42435;53.292;6.000;2023-06-22T13:43:27;26.00;48.80
56538;DHT22;42435;53.292;6.000;2023-06-22T13:45:52;26.00;48.60
56538;DHT22;42435;53.292;6.000;2023-06-22T13:48:18;26.00;48.20
56538;DHT22;42435;53.292;6.000;2023-06-22T13:50:44;25.90;48.20
56538;DHT22;42435;53.292;6.000;2023-06-22T13:53:09;25.80;48.60
56538;DHT22;42435;53.292;6.000;2023-06-22T13:55:35;25.70;48.80
56538;DHT22;42435;53.292;6.000;2023-06-22T13:58:00;25.50;48.60
56538;DHT22;42435;53.292;6.000;2023-06-22T14:00:26;25.40;49.20
56538;DHT22;42435;53.292;6.000;2023-06-22T14:02:53;25.40;49.80
56538;DHT22;42435;53.292;6.000;2023-06-22T14:05:19;25.30;50.00
56538;DHT22;42435;53.292;6.000;2023-06-22T14:07:45;25.30;49.90
56538;DHT22;42435;53.292;6.000;2023-06-22T14:10:11;25.10;50.60
56538;DHT22;42435;53.292;6.000;2023-06-22T14:12:39;25.10;50.80
56538;DHT22;42435;53.292;6.000;2023-06-22T14:15:05;25.00;50.70
56538;DHT22;42435;53.292;6.000;2023-06-22T14:17:31;24.80;50.90
56538;DHT22;42435;53.292;6.000;2023-06-22T14:19:56;24.80;51.10
56538;DHT22;42435;53.292;6.000;2023-06-22T14:22:23;24.70;51.30
56538;DHT22;42435;53.292;6.000;2023-06-22T14:24:48;24.60;51.80
56538;DHT22;42435;53.292;6.000;2023-06-22T14:27:14;24.60;51.90
56538;DHT22;42435;53.292;6.000;2023-06-22T14:29:40;24.60;51.90
56538;DHT22;42435;53.292;6.000;2023-06-22T14:32:07;24.60;52.10
56538;DHT22;42435;53.292;6.000;2023-06-22T14:34:33;24.50;51.80
56538;DHT22;42435;53.292;6.000;2023-06-22T14:37:01;24.40;51.80
56538;DHT22;42435;53.292;6.000;2023-06-22T14:39:27;24.40;51.80
56538;DHT22;42435;53.292;6.000;2023-06-22T14:41:53;24.40;52.30
56538;DHT22;42435;53.292;6.000;2023-06-22T14:44:18;24.30;52.70
56538;DHT22;42435;53.292;6.000;2023-06-22T14:46:44;24.40;52.80
56538;DHT22;42435;53.292;6.000;2023-06-22T14:49:09;24.40;52.70
56538;DHT22;42435;53.292;6.000;2023-06-22T14:51:35;24.30;52.40
56538;DHT22;42435;53.292;6.000;2023-06-22T14:54:01;24.10;52.60
56538;DHT22;42435;53.292;6.000;2023-06-22T14:56:29;24.00;52.30
56538;DHT22;42435;53.292;6.000;2023-06-22T14:58:55;23.90;52.30
56538;DHT22;42435;53.292;6.000;2023-06-22T15:01:21;23.90;52.70
56538;DHT22;42435;53.292;6.000;2023-06-22T15:03:46;23.90;52.90
56538;DHT22;42435;53.292;6.000;2023-06-22T15:06:12;23.90;52.80
56538;DHT22;42435;53.292;6.000;2023-06-22T15:08:38;23.80;53.20
56538;DHT22;42435;53.292;6.000;2023-06-22T15:11:04;23.80;53.40
56538;DHT22;42435;53.292;6.000;2023-06-22T15:13:31;23.80;53.60
56538;DHT22;42435;53.292;6.000;2023-06-22T15:16:02;23.80;53.90
56538;DHT22;42435;53.292;6.000;2023-06-22T15:18:31;23.80;54.10
56538;DHT22;42435;53.292;6.000;2023-06-22T15:20:59;23.90;54.50
56538;DHT22;42435;53.292;6.000;2023-06-22T15:23:27;23.80;54.40
56538;DHT22;42435;53.292;6.000;2023-06-22T15:25:57;23.70;54.60
56538;DHT22;42435;53.292;6.000;2023-06-22T15:28:23;23.70;54.80
56538;DHT22;42435;53.292;6.000;2023-06-22T15:30:50;23.70;55.00